createdAt,value
2022-12-07T00:01:07.111Z,96121.94
2022-12-07T00:03:34.940Z,96121.84
2022-12-07T00:06:03.592Z,96118.88
2022-12-07T00:08:32.518Z,96115.13
2022-12-07T00:11:03.658Z,96119.34
2022-12-07T00:13:31.671Z,96122.22
2022-12-07T00:16:03.917Z,96122.03
2022-12-07T00:18:31.557Z,96122.44
2022-12-07T00:21:02.206Z,96108.66
2022-12-07T00:23:30.089Z,96107.72
2022-12-07T00:25:57.648Z,96108.28
2022-12-07T00:28:25.187Z,96096.22
2022-12-07T00:30:52.694Z,96102.22
2022-12-07T00:33:21.549Z,96103.50
2022-12-07T00:35:49.110Z,96104.50
2022-12-07T00:38:16.615Z,96115.94
2022-12-07T00:40:44.180Z,96116.41
2022-12-07T00:43:11.695Z,96107.75
2022-12-07T00:45:39.258Z,96113.69
2022-12-07T00:48:06.834Z,96113.78
2022-12-07T00:50:35.711Z,96107.38
2022-12-07T00:53:03.240Z,96117.00
2022-12-07T00:55:34.771Z,96113.78
2022-12-07T00:58:02.285Z,96105.59
2022-12-07T01:00:29.855Z,96098.00
2022-12-07T01:02:57.437Z,96100.13
2022-12-07T01:05:25.018Z,96098.53
2022-12-07T01:07:53.981Z,96111.25
2022-12-07T01:10:21.549Z,96115.19
2022-12-07T01:12:49.119Z,96108.13
2022-12-07T01:15:16.825Z,96105.38
2022-12-07T01:17:44.330Z,96115.06
2022-12-07T01:20:13.164Z,96112.22
2022-12-07T01:22:41.569Z,96115.47
2022-12-07T01:25:12.219Z,96116.50
2022-12-07T01:27:40.073Z,96130.13
2022-12-07T01:30:09.117Z,96128.66
2022-12-07T01:32:36.650Z,96125.47
2022-12-07T01:35:04.383Z,96128.22
2022-12-07T01:37:36.485Z,96123.78
2022-12-07T01:40:04.637Z,96116.31
2022-12-07T01:42:33.585Z,96119.28
2022-12-07T01:45:46.976Z,96117.25
2022-12-07T01:48:18.427Z,96130.09
2022-12-07T01:50:50.427Z,96128.16
2022-12-07T01:53:19.844Z,96121.75
2022-12-07T01:55:52.035Z,96121.28
2022-12-07T01:58:21.834Z,96112.19
2022-12-07T02:00:49.337Z,96122.13
2022-12-07T02:03:21.623Z,96113.91
2022-12-07T02:05:51.024Z,96122.97
2022-12-07T02:08:19.082Z,96119.13
2022-12-07T02:10:46.642Z,96117.50
2022-12-07T02:13:17.539Z,96110.59
2022-12-07T02:15:59.924Z,96106.72
2022-12-07T02:18:40.151Z,96103.69
2022-12-07T02:21:13.356Z,96110.97
2022-12-07T02:23:54.142Z,96102.19
2022-12-07T02:26:45.261Z,96099.16
2022-12-07T02:29:20.201Z,96106.41
2022-12-07T02:31:57.048Z,96097.09
2022-12-07T02:34:36.745Z,96101.16
2022-12-07T02:37:12.239Z,96093.63
2022-12-07T02:39:46.071Z,96099.03
2022-12-07T02:42:18.127Z,96093.28
2022-12-07T02:44:48.338Z,96095.91
2022-12-07T02:47:20.526Z,96093.75
2022-12-07T02:49:48.279Z,96099.31
2022-12-07T02:52:15.785Z,96098.84
2022-12-07T02:54:43.292Z,96097.25
2022-12-07T02:57:25.884Z,96097.25
2022-12-07T03:00:04.855Z,96096.41
2022-12-07T03:02:42.668Z,96092.84
2022-12-07T03:05:34.727Z,96085.94
2022-12-07T03:08:08.532Z,96096.19
2022-12-07T03:10:49.825Z,96088.44
2022-12-07T03:13:25.482Z,96099.16
2022-12-07T03:16:00.510Z,96094.03
2022-12-07T03:18:32.530Z,96094.66
2022-12-07T03:21:06.907Z,96090.34
2022-12-07T03:23:37.580Z,96089.72
2022-12-07T03:26:08.477Z,96090.81
2022-12-07T03:28:41.931Z,96080.78
2022-12-07T03:31:16.783Z,96087.00
2022-12-07T03:33:50.550Z,96081.53
2022-12-07T03:36:24.040Z,96076.63
2022-12-07T03:38:57.969Z,96064.56
2022-12-07T03:41:28.900Z,96061.81
2022-12-07T03:43:57.598Z,96066.66
2022-12-07T03:46:37.581Z,96068.56
2022-12-07T03:49:11.969Z,96072.91
2022-12-07T03:51:46.016Z,96073.19
2022-12-07T03:54:18.350Z,96081.97
2022-12-07T03:56:47.834Z,96075.38
2022-12-07T03:59:16.609Z,96077.63
2022-12-07T04:01:46.276Z,96074.44
2022-12-07T04:04:13.856Z,96068.03
2022-12-07T04:06:41.380Z,96076.28
2022-12-07T04:09:08.885Z,96073.66
2022-12-07T04:11:36.408Z,96070.72
2022-12-07T04:14:22.314Z,96074.16
2022-12-07T04:16:53.001Z,96065.03
2022-12-07T04:19:23.283Z,96067.97
2022-12-07T04:21:50.836Z,96074.41
2022-12-07T04:24:18.890Z,96077.63
2022-12-07T04:26:47.378Z,96074.41
2022-12-07T04:29:16.456Z,96064.25
2022-12-07T04:31:44.607Z,96065.31
2022-12-07T04:34:14.090Z,96064.75
2022-12-07T04:36:42.533Z,96068.16
2022-12-07T04:39:15.780Z,96051.63
2022-12-07T04:41:43.323Z,96060.56
2022-12-07T04:44:10.928Z,96057.81
2022-12-07T04:46:38.451Z,96052.50
2022-12-07T04:49:06.006Z,96048.59
2022-12-07T04:51:34.876Z,96044.22
2022-12-07T04:54:02.392Z,96032.41
2022-12-07T04:56:29.939Z,96036.91
2022-12-07T04:58:57.588Z,96028.78
2022-12-07T05:01:25.878Z,96034.13
2022-12-07T05:03:53.560Z,96035.47
2022-12-07T05:06:21.658Z,96021.06
2022-12-07T05:08:50.647Z,96030.94
2022-12-07T05:11:32.475Z,96022.50
2022-12-07T05:14:00.010Z,96020.59
2022-12-07T05:16:28.084Z,96021.78
2022-12-07T05:18:55.637Z,96020.34
2022-12-07T05:21:23.330Z,96025.81
2022-12-07T05:23:52.253Z,96018.44
2022-12-07T05:26:19.834Z,96019.66
2022-12-07T05:28:47.352Z,96019.97
2022-12-07T05:31:14.920Z,96027.09
2022-12-07T05:33:42.440Z,96029.34
2022-12-07T05:36:10.151Z,96025.09
2022-12-07T05:38:37.702Z,96032.78
2022-12-07T05:41:08.504Z,96038.03
2022-12-07T05:43:35.059Z,96046.09
2022-12-07T05:46:02.635Z,96047.03
2022-12-07T05:48:30.221Z,96054.09
2022-12-07T05:50:57.728Z,96058.94
2022-12-07T05:53:25.269Z,96061.94
2022-12-07T05:55:54.038Z,96073.09
2022-12-07T05:58:40.381Z,96072.63
2022-12-07T06:01:07.883Z,96069.28
2022-12-07T06:03:35.493Z,96075.38
2022-12-07T06:06:03.088Z,96080.47
2022-12-07T06:08:30.714Z,96082.88
2022-12-07T06:11:12.193Z,96081.28
2022-12-07T06:13:46.822Z,96071.44
2022-12-07T06:16:14.824Z,96088.47
2022-12-07T06:18:42.397Z,96071.16
2022-12-07T06:21:09.950Z,96074.84
2022-12-07T06:23:37.456Z,96068.28
2022-12-07T06:26:05.103Z,96082.00
2022-12-07T06:28:32.599Z,96080.66
2022-12-07T06:31:02.223Z,96083.72
2022-12-07T06:33:30.710Z,96076.84
2022-12-07T06:35:58.261Z,96066.94
2022-12-07T06:38:25.815Z,96071.84
2022-12-07T06:40:53.335Z,96063.44
2022-12-07T06:43:20.845Z,96071.09
2022-12-07T06:45:48.384Z,96081.91
2022-12-07T06:48:17.274Z,96084.78
2022-12-07T06:50:51.179Z,96072.28
2022-12-07T06:53:21.825Z,96083.56
2022-12-07T06:55:49.390Z,96083.16
2022-12-07T06:58:17.146Z,96075.59
2022-12-07T07:00:44.823Z,96069.50
2022-12-07T07:03:12.762Z,96075.31
2022-12-07T07:05:41.610Z,96069.63
2022-12-07T07:08:25.065Z,96070.47
2022-12-07T07:10:52.674Z,96055.44
2022-12-07T07:13:20.202Z,96048.81
2022-12-07T07:15:47.783Z,96059.03
2022-12-07T07:18:15.315Z,96060.13
2022-12-07T07:20:44.149Z,96058.91
2022-12-07T07:23:11.693Z,96049.63
2022-12-07T07:25:39.531Z,96053.44
2022-12-07T07:28:07.439Z,96053.34
2022-12-07T07:30:35.051Z,96060.22
2022-12-07T07:33:04.079Z,96058.78
2022-12-07T07:35:33.158Z,96055.84
2022-12-07T07:38:02.347Z,96066.38
2022-12-07T07:40:30.646Z,96081.56
2022-12-07T07:42:58.928Z,96073.22
2022-12-07T07:45:28.267Z,96071.22
2022-12-07T07:47:56.063Z,96071.59
2022-12-07T07:50:24.140Z,96078.38
2022-12-07T07:52:52.109Z,96074.66
2022-12-07T07:55:21.074Z,96083.09
2022-12-07T07:57:54.553Z,96081.97
2022-12-07T08:00:23.787Z,96074.66
2022-12-07T08:02:51.358Z,96084.59
2022-12-07T08:05:19.188Z,96076.28
2022-12-07T08:07:46.773Z,96091.69
2022-12-07T08:10:15.729Z,96088.78
2022-12-07T08:13:02.991Z,96092.88
2022-12-07T08:15:32.412Z,96095.06
2022-12-07T08:18:00.668Z,96103.41
2022-12-07T08:20:28.356Z,96102.19
2022-12-07T08:22:55.910Z,96101.25
2022-12-07T08:25:24.028Z,96100.63
2022-12-07T08:27:53.548Z,96095.69
2022-12-07T08:30:21.768Z,96105.09
2022-12-07T08:32:50.248Z,96108.84
2022-12-07T08:35:18.574Z,96104.25
2022-12-07T08:37:46.091Z,96104.25
2022-12-07T08:40:16.070Z,96110.28
2022-12-07T08:42:45.457Z,96106.94
2022-12-07T08:45:16.330Z,96105.50
2022-12-07T08:47:47.447Z,96102.50
2022-12-07T08:50:15.976Z,96109.88
2022-12-07T08:52:43.729Z,96109.75
2022-12-07T08:55:13.057Z,96113.31
2022-12-07T08:57:41.447Z,96125.19
2022-12-07T09:00:10.100Z,96119.25
2022-12-07T09:02:39.280Z,96112.81
2022-12-07T09:05:11.815Z,96115.19
2022-12-07T09:07:44.259Z,96121.41
2022-12-07T09:10:12.556Z,96120.03
2022-12-07T09:12:40.103Z,96113.19
2022-12-07T09:15:09.364Z,96124.16
2022-12-07T09:17:38.184Z,96118.94
2022-12-07T09:20:08.972Z,96125.13
2022-12-07T09:22:36.513Z,96122.50
2022-12-07T09:25:04.926Z,96121.78
2022-12-07T09:27:32.860Z,96121.91
2022-12-07T09:30:00.716Z,96111.16
2022-12-07T09:32:28.693Z,96110.16
2022-12-07T09:34:56.356Z,96103.13
2022-12-07T09:37:25.267Z,96105.06
2022-12-07T09:39:53.107Z,96101.09
2022-12-07T09:42:30.685Z,96108.31
2022-12-07T09:44:59.470Z,96111.53
2022-12-07T09:47:28.012Z,96106.75
2022-12-07T09:50:02.360Z,96106.75
2022-12-07T09:52:38.522Z,96108.44
2022-12-07T09:55:13.604Z,96109.84
2022-12-07T09:57:41.702Z,96105.28
2022-12-07T10:00:16.794Z,96100.03
2022-12-07T10:02:46.801Z,96100.06
2022-12-07T10:05:23.585Z,96094.53
2022-12-07T10:07:53.376Z,96090.56
2022-12-07T10:10:26.707Z,96086.03
2022-12-07T10:12:59.637Z,96084.13
2022-12-07T10:15:43.943Z,96081.16
2022-12-07T10:18:21.706Z,96072.41
2022-12-07T10:20:50.026Z,96073.31
2022-12-07T10:23:20.148Z,96078.06
2022-12-07T10:25:49.132Z,96065.47
2022-12-07T10:28:18.895Z,96066.69
2022-12-07T10:30:57.658Z,96061.41
2022-12-07T10:33:39.864Z,96058.72
2022-12-07T10:36:20.419Z,96048.03
2022-12-07T10:38:52.182Z,96058.63
2022-12-07T10:41:19.969Z,96055.44
2022-12-07T10:43:55.475Z,96058.66
2022-12-07T10:46:52.933Z,96051.03
2022-12-07T10:49:59.107Z,96054.00
2022-12-07T10:52:42.971Z,96047.56
2022-12-07T10:55:22.065Z,96043.97
2022-12-07T10:58:11.524Z,96035.16
2022-12-07T11:00:45.521Z,96043.25
2022-12-07T11:03:33.185Z,96037.66
2022-12-07T11:06:12.416Z,96036.03
2022-12-07T11:08:51.319Z,96033.06
2022-12-07T11:11:28.916Z,96027.59
2022-12-07T11:14:04.207Z,96028.59
2022-12-07T11:16:46.414Z,96019.88
2022-12-07T11:19:31.052Z,96016.22
2022-12-07T11:22:00.438Z,96022.94
2022-12-07T11:24:34.744Z,96019.28
2022-12-07T11:27:12.579Z,96023.16
2022-12-07T11:29:51.572Z,96021.06
2022-12-07T11:32:24.512Z,96024.22
2022-12-07T11:35:05.208Z,96010.72
2022-12-07T11:37:38.192Z,96012.97
2022-12-07T11:40:19.329Z,96012.69
2022-12-07T11:42:53.476Z,96015.44
2022-12-07T11:45:28.067Z,96004.53
2022-12-07T11:48:00.437Z,96009.13
2022-12-07T11:50:34.866Z,96009.47
2022-12-07T11:53:07.385Z,96007.03
2022-12-07T11:55:44.854Z,96011.75
2022-12-07T11:58:25.051Z,96010.19
2022-12-07T12:00:57.045Z,96010.88
2022-12-07T12:03:31.282Z,96010.94
2022-12-07T12:05:58.990Z,96001.72
2022-12-07T12:11:40.535Z,96005.00
2022-12-07T12:17:18.978Z,96004.72
2022-12-07T12:20:02.012Z,96008.91
2022-12-07T12:22:39.032Z,95999.16
2022-12-07T12:25:09.253Z,95997.38
2022-12-07T12:27:39.814Z,95989.16
2022-12-07T12:30:27.666Z,96000.56
2022-12-07T12:33:05.290Z,95992.75
2022-12-07T12:35:35.042Z,95987.41
2022-12-07T12:38:28.866Z,95995.94
2022-12-07T12:40:57.182Z,95993.63
2022-12-07T12:43:53.160Z,95993.31
2022-12-07T12:46:50.158Z,95999.88
2022-12-07T12:49:35.828Z,95999.72
2022-12-07T12:52:51.312Z,95999.72
2022-12-07T12:55:24.471Z,95988.22
2022-12-07T12:58:29.383Z,95992.72
2022-12-07T13:01:30.231Z,95981.47
2022-12-07T13:03:59.724Z,95970.56
2022-12-07T13:06:38.983Z,95969.22
2022-12-07T13:09:19.923Z,95965.81
2022-12-07T13:11:48.325Z,95963.34
2022-12-07T13:14:45.235Z,95970.19
2022-12-07T13:17:13.827Z,95966.66
2022-12-07T13:20:03.792Z,95969.91
2022-12-07T13:22:44.342Z,95965.94
2022-12-07T13:25:21.297Z,95970.34
2022-12-07T13:27:56.042Z,95970.84
2022-12-07T13:30:24.181Z,95970.56
2022-12-07T13:32:56.116Z,95970.91
2022-12-07T13:35:33.023Z,95962.66
2022-12-07T13:38:01.495Z,95956.84
2022-12-07T13:40:29.066Z,95956.47
2022-12-07T13:43:01.074Z,95963.09
2022-12-07T13:45:49.019Z,95960.53
2022-12-07T13:48:24.181Z,95948.69
2022-12-07T13:50:57.586Z,95956.75
2022-12-07T13:53:25.743Z,95954.94
2022-12-07T13:55:54.880Z,95953.06
2022-12-07T13:58:23.634Z,95957.00
2022-12-07T14:00:51.881Z,95951.19
2022-12-07T14:03:33.135Z,95953.44
2022-12-07T14:06:26.148Z,95949.75
2022-12-07T14:09:18.546Z,95954.78
2022-12-07T14:11:46.720Z,95956.06
2022-12-07T14:14:18.799Z,95947.41
2022-12-07T14:17:00.813Z,95950.03
2022-12-07T14:19:48.614Z,95949.28
2022-12-07T14:22:25.229Z,95949.22
2022-12-07T14:25:00.253Z,95949.53
2022-12-07T14:27:34.901Z,95950.09
2022-12-07T14:30:02.880Z,95950.63
2022-12-07T14:32:31.866Z,95948.00
2022-12-07T14:35:02.388Z,95949.53
2022-12-07T14:37:32.290Z,95950.66
2022-12-07T14:39:59.827Z,95944.69
2022-12-07T14:42:32.488Z,95938.06
2022-12-07T14:45:00.969Z,95944.53
2022-12-07T14:50:19.769Z,95949.63
2022-12-07T14:55:40.611Z,95955.09
2022-12-07T14:58:08.160Z,95948.91
2022-12-07T15:00:35.992Z,95952.63
2022-12-07T15:03:03.525Z,95945.19
2022-12-07T15:05:31.158Z,95939.09
2022-12-07T15:08:00.183Z,95939.81
2022-12-07T15:10:33.748Z,95934.69
2022-12-07T15:13:17.638Z,95937.06
2022-12-07T15:15:45.293Z,95933.03
2022-12-07T15:18:12.900Z,95927.66
2022-12-07T15:20:40.456Z,95927.25
2022-12-07T15:23:09.915Z,95928.75
2022-12-07T15:25:37.610Z,95926.97
2022-12-07T15:28:05.309Z,95932.06
2022-12-07T15:30:32.827Z,95936.97
2022-12-07T15:33:00.372Z,95943.69
2022-12-07T15:35:27.903Z,95932.78
2022-12-07T15:37:55.428Z,95932.75
2022-12-07T15:40:24.330Z,95934.84
2022-12-07T15:42:51.856Z,95937.06
2022-12-07T15:45:18.560Z,95931.13
2022-12-07T15:50:33.956Z,95931.81
2022-12-07T15:53:01.459Z,95931.81
2022-12-07T15:55:30.327Z,95927.50
2022-12-07T15:57:57.844Z,95930.84
2022-12-07T16:00:25.700Z,95925.84
2022-12-07T16:02:53.274Z,95924.91
2022-12-07T16:05:20.876Z,95919.63
2022-12-07T16:07:48.782Z,95919.75
2022-12-07T16:10:16.558Z,95924.03
2022-12-07T16:12:45.437Z,95930.06
2022-12-07T16:15:12.987Z,95927.53
2022-12-07T16:17:40.503Z,95934.06
2022-12-07T16:20:09.161Z,95934.56
2022-12-07T16:22:36.687Z,95927.81
2022-12-07T16:25:04.811Z,95932.94
2022-12-07T16:27:32.428Z,95922.09
2022-12-07T16:30:01.277Z,95921.56
2022-12-07T16:32:28.787Z,95922.22
2022-12-07T16:34:56.311Z,95919.56
2022-12-07T16:37:23.824Z,95916.69
2022-12-07T16:39:51.360Z,95918.41
2022-12-07T16:42:18.960Z,95924.72
2022-12-07T16:44:46.462Z,95927.34
2022-12-07T16:47:16.022Z,95916.84
2022-12-07T16:49:44.539Z,95911.19
2022-12-07T16:52:20.674Z,95923.06
2022-12-07T16:54:49.211Z,95921.25
2022-12-07T16:57:22.329Z,95919.56
2022-12-07T16:59:50.411Z,95919.78
2022-12-07T17:02:19.299Z,95925.72
2022-12-07T17:04:46.827Z,95922.34
2022-12-07T17:07:14.447Z,95913.00
2022-12-07T17:09:42.017Z,95914.91
2022-12-07T17:12:09.559Z,95916.84
2022-12-07T17:14:54.881Z,95913.78
2022-12-07T17:17:23.740Z,95910.72
2022-12-07T17:19:51.252Z,95902.72
2022-12-07T17:22:18.815Z,95903.13
2022-12-07T17:24:46.330Z,95909.78
2022-12-07T17:27:13.888Z,95904.38
2022-12-07T17:29:41.407Z,95906.28
2022-12-07T17:32:09.018Z,95902.59
2022-12-07T17:34:38.731Z,95900.91
2022-12-07T17:37:06.237Z,95901.56
2022-12-07T17:39:33.754Z,95899.47
2022-12-07T17:42:18.747Z,95900.25
2022-12-07T17:44:46.258Z,95900.28
2022-12-07T17:47:15.599Z,95908.16
2022-12-07T17:49:46.550Z,95905.16
2022-12-07T17:52:31.847Z,95903.72
2022-12-07T17:54:59.378Z,95906.34
2022-12-07T17:57:27.005Z,95904.91
2022-12-07T17:59:55.404Z,95913.06
2022-12-07T18:02:22.951Z,95907.41
2022-12-07T18:04:53.002Z,95900.63
2022-12-07T18:07:20.570Z,95897.81
2022-12-07T18:09:48.072Z,95898.88
2022-12-07T18:12:15.671Z,95891.22
2022-12-07T18:14:43.179Z,95897.63
2022-12-07T18:17:10.792Z,95893.63
2022-12-07T18:19:38.424Z,95892.44
2022-12-07T18:22:07.308Z,95886.78
2022-12-07T18:24:37.103Z,95893.00
2022-12-07T18:27:05.258Z,95898.78
2022-12-07T18:29:32.793Z,95891.44
2022-12-07T18:32:00.350Z,95903.41
2022-12-07T18:34:30.278Z,95892.78
2022-12-07T18:36:57.863Z,95892.94
2022-12-07T18:39:33.038Z,95889.38
2022-12-07T18:42:01.431Z,95895.50
2022-12-07T18:44:28.940Z,95899.09
2022-12-07T18:46:56.435Z,95902.19
2022-12-07T18:49:24.011Z,95899.50
2022-12-07T18:51:51.551Z,95898.28
2022-12-07T18:54:19.050Z,95910.69
2022-12-07T18:56:47.906Z,95898.53
2022-12-07T18:59:33.062Z,95903.53
2022-12-07T19:02:00.719Z,95899.94
2022-12-07T19:04:28.454Z,95891.94
2022-12-07T19:06:55.974Z,95896.91
2022-12-07T19:09:23.511Z,95890.59
2022-12-07T19:11:52.825Z,95892.84
2022-12-07T19:14:24.546Z,95898.41
2022-12-07T19:16:53.391Z,95902.19
2022-12-07T19:19:23.021Z,95888.91
2022-12-07T19:21:51.223Z,95889.59
2022-12-07T19:24:23.094Z,95885.81
2022-12-07T19:26:52.642Z,95888.63
2022-12-07T19:29:20.346Z,95896.09
2022-12-07T19:31:48.003Z,95892.75
2022-12-07T19:34:17.531Z,95896.16
2022-12-07T19:36:45.832Z,95897.22
2022-12-07T19:39:15.351Z,95887.41
2022-12-07T19:41:44.066Z,95889.34
2022-12-07T19:44:14.977Z,95897.47
2022-12-07T19:46:43.636Z,95894.66
2022-12-07T19:49:11.229Z,95893.63
2022-12-07T19:51:38.765Z,95894.59
2022-12-07T19:54:06.440Z,95895.47
2022-12-07T19:56:33.969Z,95883.22
2022-12-07T19:59:02.926Z,95886.19
2022-12-07T20:01:32.003Z,95885.06
2022-12-07T20:03:59.632Z,95887.97
2022-12-07T20:06:27.947Z,95884.34
2022-12-07T20:08:55.469Z,95877.31
2022-12-07T20:11:40.722Z,95883.47
2022-12-07T20:14:09.244Z,95878.50
2022-12-07T20:16:40.123Z,95875.69
2022-12-07T20:19:08.684Z,95872.91
2022-12-07T20:21:36.304Z,95869.09
2022-12-07T20:24:05.173Z,95873.94
2022-12-07T20:26:34.592Z,95870.00
2022-12-07T20:29:07.871Z,95870.38
2022-12-07T20:31:39.128Z,95862.09
2022-12-07T20:34:06.699Z,95864.38
2022-12-07T20:36:34.259Z,95852.88
2022-12-07T20:39:02.841Z,95851.84
2022-12-07T20:41:47.888Z,95851.94
2022-12-07T20:44:16.026Z,95858.88
2022-12-07T20:46:45.336Z,95857.22
2022-12-07T20:49:15.202Z,95858.19
2022-12-07T20:51:42.742Z,95858.13
2022-12-07T20:54:10.558Z,95850.47
2022-12-07T20:56:38.148Z,95851.88
2022-12-07T20:59:09.634Z,95841.78
2022-12-07T21:01:37.962Z,95839.78
2022-12-07T21:04:07.178Z,95844.38
2022-12-07T21:06:35.139Z,95849.25
2022-12-07T21:09:02.720Z,95848.25
2022-12-07T21:11:31.716Z,95844.09
2022-12-07T21:13:59.843Z,95838.06
2022-12-07T21:16:29.654Z,95840.44
2022-12-07T21:18:59.964Z,95835.38
2022-12-07T21:21:29.747Z,95839.06
2022-12-07T21:24:02.087Z,95832.97
2022-12-07T21:26:31.028Z,95834.06
2022-12-07T21:28:58.575Z,95835.34
2022-12-07T21:31:26.734Z,95834.31
2022-12-07T21:33:54.468Z,95832.94
2022-12-07T21:36:24.199Z,95832.75
2022-12-07T21:38:53.461Z,95827.72
2022-12-07T21:41:23.631Z,95831.50
2022-12-07T21:43:51.958Z,95825.59
2022-12-07T21:46:21.038Z,95822.84
2022-12-07T21:48:51.826Z,95830.13
2022-12-07T21:51:21.000Z,95827.59
2022-12-07T21:53:49.845Z,95822.78
2022-12-07T21:56:21.236Z,95814.94
2022-12-07T21:58:49.852Z,95814.66
2022-12-07T22:01:18.994Z,95817.75
2022-12-07T22:03:47.259Z,95800.84
2022-12-07T22:06:15.538Z,95810.38
2022-12-07T22:08:43.165Z,95792.28
2022-12-07T22:11:11.268Z,95797.56
2022-12-07T22:13:59.065Z,95803.75
2022-12-07T22:16:27.481Z,95808.41
2022-12-07T22:18:57.399Z,95807.22
2022-12-07T22:21:25.567Z,95795.38
2022-12-07T22:23:53.559Z,95801.53
2022-12-07T22:26:24.416Z,95812.69
2022-12-07T22:28:53.697Z,95807.13
2022-12-07T22:31:22.238Z,95805.44
2022-12-07T22:33:50.254Z,95805.31
2022-12-07T22:36:18.452Z,95805.44
2022-12-07T22:38:46.821Z,95809.28
2022-12-07T22:41:19.424Z,95802.13
2022-12-07T22:43:46.995Z,95814.22
2022-12-07T22:46:16.227Z,95805.28
2022-12-07T22:48:43.813Z,95804.53
2022-12-07T22:51:21.696Z,95818.19
2022-12-07T22:53:49.291Z,95811.88
2022-12-07T22:56:17.223Z,95807.91
2022-12-07T22:58:45.213Z,95804.88
2022-12-07T23:01:14.197Z,95787.75
2022-12-07T23:03:43.651Z,95784.53
2022-12-07T23:06:15.038Z,95791.28
2022-12-07T23:08:42.603Z,95782.25
2022-12-07T23:11:11.000Z,95792.22
2022-12-07T23:13:38.085Z,95792.59
2022-12-07T23:16:11.644Z,95790.59
2022-12-07T23:18:39.908Z,95773.84
2022-12-07T23:21:09.812Z,95769.06
2022-12-07T23:23:37.361Z,95766.63
2022-12-07T23:26:06.384Z,95770.50
2022-12-07T23:28:35.217Z,95765.56
2022-12-07T23:31:04.020Z,95772.94
2022-12-07T23:33:31.630Z,95765.19
2022-12-07T23:36:09.966Z,95770.47
2022-12-07T23:38:38.448Z,95764.44
2022-12-07T23:41:07.962Z,95759.22
2022-12-07T23:43:36.783Z,95758.84
2022-12-07T23:46:05.087Z,95755.16
2022-12-07T23:48:32.623Z,95756.72
2022-12-07T23:51:00.263Z,95760.88
2022-12-07T23:53:30.297Z,95757.66
2022-12-07T23:55:58.101Z,95752.78
2022-12-07T23:58:25.621Z,95738.91
